Time;durP1;ratioP1;P1;durP2;ratioP2;P2;SDS_P1;SDS_P2;PMS_P1;PMS_P2;Temp;Humidity;BMP_temperature;BMP_pressure;BME280_temperature;BME280_humidity;BME280_pressure;Samples;Min_cycle;Max_cycle;Signal;HPM_P1;HPM_P2
2021/08/22 00:00:29;;;;;;;4.63;3.03;;;19.90;90.80;;;;;;5055758;28;20025;-81
2021/08/22 00:02:55;;;;;;;5.93;3.00;;;19.80;90.80;;;;;;5055702;28;20116;-81
2021/08/22 00:05:20;;;;;;;6.95;3.40;;;19.80;90.80;;;;;;5055593;28;20123;-81
2021/08/22 00:07:46;;;;;;;3.88;2.85;;;19.80;90.80;;;;;;5038690;28;20028;-81
2021/08/22 00:10:12;;;;;;;7.03;2.97;;;19.70;90.70;;;;;;5073388;28;20039;-81
2021/08/22 00:12:38;;;;;;;4.82;2.80;;;19.70;90.70;;;;;;5072979;28;20034;-81
2021/08/22 00:15:05;;;;;;;4.47;3.10;;;19.70;90.70;;;;;;5072560;28;20059;-81
2021/08/22 00:17:31;;;;;;;5.90;3.03;;;19.70;90.80;;;;;;5072549;28;20103;-82
2021/08/22 00:19:56;;;;;;;4.88;2.97;;;19.70;90.80;;;;;;5072618;28;20072;-82
2021/08/22 00:22:22;;;;;;;5.95;3.10;;;19.60;90.80;;;;;;5072712;28;20029;-82
2021/08/22 00:24:48;;;;;;;5.95;2.92;;;19.60;90.70;;;;;;5072751;28;20535;-82
2021/08/22 00:27:13;;;;;;;4.50;3.08;;;19.50;90.80;;;;;;5072253;28;20041;-82
2021/08/22 00:29:39;;;;;;;5.97;2.75;;;19.50;90.80;;;;;;5072616;28;20033;-81
2021/08/22 00:32:05;;;;;;;3.70;2.97;;;19.50;90.80;;;;;;5072054;28;20396;-82
2021/08/22 00:34:31;;;;;;;6.57;2.72;;;19.50;90.80;;;;;;5072377;28;20044;-82
2021/08/22 00:36:56;;;;;;;4.95;2.40;;;19.50;90.90;;;;;;5073383;28;20489;-82
2021/08/22 00:39:24;;;;;;;8.93;2.35;;;19.50;90.90;;;;;;5055433;28;20066;-82
2021/08/22 00:41:50;;;;;;;5.32;2.53;;;19.50;90.90;;;;;;5073339;28;20033;-82
2021/08/22 00:44:15;;;;;;;2.70;2.28;;;19.50;90.90;;;;;;5073181;28;20032;-81
2021/08/22 00:46:41;;;;;;;3.63;2.15;;;19.50;91.00;;;;;;5055366;28;20040;-81
2021/08/22 00:49:11;;;;;;;3.78;2.70;;;19.40;91.00;;;;;;5038631;28;20056;-82
2021/08/22 00:51:39;;;;;;;3.35;2.40;;;19.40;90.90;;;;;;5073157;28;20040;-82
2021/08/22 00:54:04;;;;;;;5.10;3.00;;;19.40;90.90;;;;;;5055704;28;20025;-82
2021/08/22 00:56:31;;;;;;;4.75;2.78;;;19.30;90.80;;;;;;5038606;28;20588;-82
2021/08/22 00:59:00;;;;;;;4.03;2.40;;;19.30;90.90;;;;;;5055023;28;20059;-82
2021/08/22 01:01:26;;;;;;;13.57;3.20;;;19.30;90.90;;;;;;5073059;28;20381;-82
2021/08/22 01:03:51;;;;;;;5.50;3.05;;;19.20;90.90;;;;;;5055299;28;20036;-82
2021/08/22 01:06:21;;;;;;;8.68;2.60;;;19.20;90.90;;;;;;5055141;28;20024;-82
2021/08/22 01:09:22;;;;;;;3.67;2.90;;;19.10;90.90;;;;;;5073015;28;20436;-81
2021/08/22 01:11:49;;;;;;;6.65;2.83;;;19.10;90.90;;;;;;5075345;28;20378;-82
2021/08/22 01:14:22;;;;;;;7.10;3.22;;;19.10;91.00;;;;;;5042551;28;20481;-81
2021/08/22 01:16:55;;;;;;;3.25;2.80;;;19.10;91.10;;;;;;5058942;28;20086;-81
2021/08/22 01:19:25;;;;;;;8.88;3.40;;;19.10;91.00;;;;;;5042286;28;20078;-81
2021/08/22 01:21:52;;;;;;;7.05;2.60;;;19.10;91.10;;;;;;5076906;28;20438;-81
2021/08/22 01:24:20;;;;;;;6.95;3.40;;;19.10;91.10;;;;;;5076708;28;20064;-82
2021/08/22 01:26:46;;;;;;;4.80;2.75;;;19.10;91.20;;;;;;5076293;28;20557;-82
2021/08/22 01:29:14;;;;;;;4.97;2.95;;;19.10;91.30;;;;;;5076804;28;20047;-81
2021/08/22 01:31:46;;;;;;;4.57;3.20;;;19.10;91.20;;;;;;5075389;28;20481;-82
2021/08/22 01:34:13;;;;;;;7.50;3.13;;;19.10;91.20;;;;;;5075572;28;20120;-81
2021/08/22 01:36:40;;;;;;;7.57;3.35;;;19.10;91.10;;;;;;5075502;28;20029;-81
2021/08/22 01:39:08;;;;;;;4.70;2.92;;;19.10;91.10;;;;;;5075441;28;20052;-81
2021/08/22 01:41:35;;;;;;;11.95;3.30;;;19.10;91.10;;;;;;5075428;28;20525;-81
2021/08/22 01:44:01;;;;;;;11.43;3.55;;;19.10;91.10;;;;;;5058397;28;20028;-81
2021/08/22 01:46:32;;;;;;;13.75;3.60;;;19.10;91.20;;;;;;5058181;28;20020;-81
2021/08/22 01:48:59;;;;;;;6.30;3.67;;;19.10;91.30;;;;;;5076302;28;20029;-81
2021/08/22 01:51:27;;;;;;;4.70;2.97;;;19.10;91.40;;;;;;5041672;28;20024;-82
2021/08/22 01:53:54;;;;;;;7.10;4.00;;;19.10;91.50;;;;;;5058289;28;20025;-82
2021/08/22 01:56:19;;;;;;;5.90;3.20;;;19.10;91.40;;;;;;5076016;28;20024;-81
2021/08/22 01:58:45;;;;;;;8.73;4.32;;;19.10;91.40;;;;;;5058482;28;20047;-81
2021/08/22 02:01:12;;;;;;;5.88;3.78;;;19.10;91.40;;;;;;5076076;28;20683;-81
2021/08/22 02:03:47;;;;;;;8.23;3.95;;;19.10;91.50;;;;;;5058365;28;20059;-81
2021/08/22 02:06:23;;;;;;;11.80;4.18;;;19.10;91.50;;;;;;5075869;28;20024;-81
2021/08/22 02:08:55;;;;;;;6.90;3.75;;;19.10;91.50;;;;;;5075913;28;20456;-81
2021/08/22 02:11:25;;;;;;;5.85;3.42;;;19.10;91.50;;;;;;5076259;28;20077;-81
2021/08/22 02:13:54;;;;;;;7.95;4.18;;;19.10;91.50;;;;;;5075877;28;20048;-81
2021/08/22 02:16:21;;;;;;;;;;;19.10;91.50;;;;;;5076087;28;20077;-82
2021/08/22 02:18:49;;;;;;;6.97;4.78;;;19.10;91.40;;;;;;5075750;28;19904;-81
2021/08/22 02:21:15;;;;;;;9.55;3.90;;;19.10;91.50;;;;;;5075703;28;20025;-81
2021/08/22 02:23:41;;;;;;;8.68;5.10;;;19.10;91.90;;;;;;5074795;28;20037;-81
2021/08/22 02:26:07;;;;;;;6.55;4.88;;;19.10;91.60;;;;;;5075707;28;20029;-81
2021/08/22 02:28:33;;;;;;;11.60;5.53;;;19.10;91.60;;;;;;5040906;28;20024;-81
2021/08/22 02:30:59;;;;;;;6.55;4.50;;;19.00;91.50;;;;;;5075609;28;20024;-81
2021/08/22 02:33:25;;;;;;;11.65;5.47;;;19.00;91.50;;;;;;5057413;28;20064;-81
2021/08/22 02:35:50;;;;;;;11.23;6.00;;;18.90;91.50;;;;;;5075486;28;20029;-81
2021/08/22 02:38:16;;;;;;;8.35;5.38;;;18.90;91.50;;;;;;5057586;28;20033;-81
2021/08/22 02:40:42;;;;;;;8.48;6.72;;;18.90;91.50;;;;;;5075440;28;20025;-81
2021/08/22 02:43:08;;;;;;;9.38;6.70;;;18.80;91.70;;;;;;5075223;28;20025;-81
2021/08/22 02:45:34;;;;;;;13.65;5.93;;;18.80;91.70;;;;;;5075165;28;20041;-81
2021/08/22 02:48:00;;;;;;;10.05;7.03;;;18.90;91.80;;;;;;5075212;28;20032;-81
2021/08/22 02:50:28;;;;;;;17.15;7.93;;;18.80;91.80;;;;;;5075096;28;20397;-81
2021/08/22 02:52:54;;;;;;;10.02;7.10;;;18.80;91.80;;;;;;5075027;28;20028;-81
2021/08/22 02:55:20;;;;;;;12.55;9.65;;;18.80;91.80;;;;;;5074964;28;20470;-82
2021/08/22 02:57:46;;;;;;;14.38;9.20;;;18.80;91.90;;;;;;5057119;28;20538;-81
2021/08/22 03:00:12;;;;;;;13.68;9.07;;;18.90;92.00;;;;;;5074948;28;20032;-82
2021/08/22 03:02:38;;;;;;;15.90;10.35;;;18.90;92.10;;;;;;5040674;28;20033;-82
2021/08/22 03:05:04;;;;;;;14.38;11.05;;;18.90;92.10;;;;;;5056956;28;20401;-81
2021/08/22 03:07:29;;;;;;;17.48;12.77;;;18.90;92.20;;;;;;5056003;28;20492;-81
2021/08/22 03:09:55;;;;;;;25.48;13.48;;;18.90;92.20;;;;;;5073670;28;20119;-81
2021/08/22 03:12:20;;;;;;;16.38;11.50;;;18.90;92.30;;;;;;5055777;28;20051;-82
2021/08/22 03:14:46;;;;;;;19.75;13.32;;;18.90;92.30;;;;;;5074169;28;20126;-81
2021/08/22 03:17:12;;;;;;;14.98;12.65;;;18.90;92.30;;;;;;5074030;28;20389;-81
2021/08/22 03:19:37;;;;;;;21.02;14.63;;;18.90;92.30;;;;;;5056219;28;20021;-81
2021/08/22 03:22:04;;;;;;;19.58;12.48;;;18.90;92.30;;;;;;5056159;28;20547;-81
2021/08/22 03:24:29;;;;;;;16.25;14.10;;;18.90;92.30;;;;;;5056277;28;20056;-81
2021/08/22 03:26:55;;;;;;;21.90;14.13;;;18.90;92.30;;;;;;5039602;28;20056;-81
2021/08/22 03:29:20;;;;;;;31.90;19.10;;;18.90;92.40;;;;;;5039816;28;20028;-81
2021/08/22 03:31:46;;;;;;;18.92;15.63;;;18.90;92.40;;;;;;5074272;28;20082;-82
2021/08/22 03:34:12;;;;;;;27.60;18.60;;;18.90;92.40;;;;;;5073207;28;20135;-82
2021/08/22 03:36:38;;;;;;;20.55;17.27;;;18.90;92.50;;;;;;5073869;28;20024;-82
2021/08/22 03:39:05;;;;;;;22.40;17.58;;;18.90;92.50;;;;;;5039496;28;20032;-82
2021/08/22 03:41:32;;;;;;;27.92;18.23;;;18.90;92.50;;;;;;5073881;28;20474;-81
2021/08/22 03:43:59;;;;;;;24.85;18.25;;;18.90;92.50;;;;;;5067039;28;20060;-82
2021/08/22 03:46:24;;;;;;;26.98;19.30;;;18.80;92.50;;;;;;5073365;28;20063;-81
2021/08/22 03:48:50;;;;;;;24.17;18.33;;;18.80;92.50;;;;;;5039492;28;20025;-82
2021/08/22 03:51:16;;;;;;;23.55;17.30;;;18.80;92.50;;;;;;5055982;28;20029;-82
2021/08/22 03:53:41;;;;;;;33.75;19.15;;;18.80;92.50;;;;;;5073906;28;20539;-82
2021/08/22 03:56:07;;;;;;;32.08;21.90;;;18.70;92.50;;;;;;5056267;28;20150;-82
2021/08/22 03:58:33;;;;;;;28.25;19.15;;;18.70;92.50;;;;;;5073872;28;20029;-82
2021/08/22 04:01:00;;;;;;;34.92;20.98;;;18.70;92.50;;;;;;5073422;28;20485;-82
2021/08/22 04:03:26;;;;;;;24.30;19.20;;;18.60;92.50;;;;;;5055885;28;20119;-81
2021/08/22 04:05:52;;;;;;;42.90;25.17;;;18.60;92.60;;;;;;5073653;28;20154;-81
2021/08/22 04:08:23;;;;;;;34.83;20.33;;;18.60;93.00;;;;;;5055856;28;20111;-82
2021/08/22 04:10:49;;;;;;;33.25;21.23;;;18.60;92.70;;;;;;5056710;28;20389;-82
2021/08/22 04:13:15;;;;;;;31.88;21.63;;;18.60;92.70;;;;;;5055466;28;20032;-81
2021/08/22 04:15:41;;;;;;;31.05;20.25;;;18.50;92.70;;;;;;5055520;28;20119;-81
2021/08/22 04:18:07;;;;;;;37.53;23.05;;;18.50;92.70;;;;;;5073583;28;20027;-81
2021/08/22 04:20:33;;;;;;;32.75;22.90;;;18.60;92.80;;;;;;5073449;28;20423;-82
2021/08/22 04:22:58;;;;;;;54.58;26.25;;;18.60;92.90;;;;;;5055551;28;20028;-81
2021/08/22 04:25:24;;;;;;;41.05;23.65;;;18.60;92.90;;;;;;5073276;28;20028;-81
2021/08/22 04:27:50;;;;;;;53.80;25.73;;;18.60;92.90;;;;;;5055477;28;20119;-82
2021/08/22 04:30:16;;;;;;;39.00;25.92;;;18.60;93.10;;;;;;5055232;28;20028;-81
2021/08/22 04:32:41;;;;;;;41.35;25.15;;;18.60;92.90;;;;;;5055215;28;20044;-82
2021/08/22 04:35:07;;;;;;;33.97;24.90;;;18.60;92.90;;;;;;5055218;28;20489;-82
2021/08/22 04:37:33;;;;;;;40.13;25.95;;;18.60;93.00;;;;;;5038773;28;20477;-81
2021/08/22 04:39:59;;;;;;;35.10;24.95;;;18.60;93.00;;;;;;5055418;28;20075;-81
2021/08/22 04:42:25;;;;;;;35.88;24.52;;;18.60;92.90;;;;;;5054294;28;20401;-81
2021/08/22 04:44:50;;;;;;;41.63;26.13;;;18.60;93.00;;;;;;5054106;28;20071;-81
2021/08/22 04:47:16;;;;;;;45.45;28.60;;;18.60;93.00;;;;;;5071862;28;20060;-81
2021/08/22 04:49:42;;;;;;;38.00;23.50;;;18.60;93.10;;;;;;5037091;28;20033;-81
2021/08/22 04:52:07;;;;;;;53.63;29.60;;;18.60;93.10;;;;;;5054511;28;20119;-81
2021/08/22 04:54:33;;;;;;;38.10;24.23;;;18.60;93.10;;;;;;5037211;28;20120;-82
2021/08/22 04:56:59;;;;;;;38.35;24.58;;;18.60;93.10;;;;;;5053923;28;20033;-81
2021/08/22 04:59:24;;;;;;;39.42;24.90;;;18.60;93.10;;;;;;5054332;28;20100;-81
2021/08/22 05:01:50;;;;;;;44.42;26.95;;;18.60;93.10;;;;;;5073033;28;20042;-81
2021/08/22 05:04:16;;;;;;;41.08;27.30;;;18.60;93.10;;;;;;5054788;28;20024;-81
2021/08/22 05:06:41;;;;;;;42.92;27.17;;;18.60;93.00;;;;;;5072633;28;20021;-81
2021/08/22 05:09:07;;;;;;;37.35;25.13;;;18.60;93.00;;;;;;5055080;28;20388;-82
2021/08/22 05:11:36;;;;;;;41.30;27.83;;;18.60;93.00;;;;;;5054927;28;20039;-82
2021/08/22 05:14:01;;;;;;;38.55;24.20;;;18.60;93.00;;;;;;5054896;28;20032;-82
2021/08/22 05:16:27;;;;;;;37.30;24.27;;;18.60;93.00;;;;;;5072871;28;20033;-82
2021/08/22 05:18:53;;;;;;;39.47;24.75;;;18.60;93.00;;;;;;5072978;28;20471;-82
2021/08/22 05:21:18;;;;;;;40.88;24.17;;;18.60;93.00;;;;;;5072672;28;20484;-81
2021/08/22 05:23:44;;;;;;;36.25;22.52;;;18.60;93.00;;;;;;5054962;28;20107;-81
2021/08/22 05:26:09;;;;;;;37.95;26.00;;;18.60;93.00;;;;;;5072660;28;20074;-82
2021/08/22 05:28:35;;;;;;;40.33;25.80;;;18.60;93.00;;;;;;5072828;28;20082;-82
2021/08/22 05:31:01;;;;;;;37.03;23.70;;;18.60;93.00;;;;;;5054718;28;20469;-82
2021/08/22 05:33:26;;;;;;;37.45;24.75;;;18.60;93.00;;;;;;5054824;28;20041;-82
2021/08/22 05:35:52;;;;;;;38.47;25.00;;;18.60;93.00;;;;;;5038264;28;20032;-82
2021/08/22 05:38:17;;;;;;;35.40;22.90;;;18.60;92.90;;;;;;5054969;28;20024;-81
2021/08/22 05:40:43;;;;;;;33.17;21.73;;;18.70;92.80;;;;;;5072860;28;20476;-82
2021/08/22 05:43:09;;;;;;;37.47;24.52;;;18.70;92.90;;;;;;5038037;28;20024;-82
2021/08/22 05:45:34;;;;;;;35.65;21.70;;;18.70;92.90;;;;;;5072802;28;20077;-82
2021/08/22 05:48:00;;;;;;;36.78;23.73;;;18.70;92.80;;;;;;5072632;28;20495;-82
2021/08/22 05:50:26;;;;;;;37.28;23.85;;;18.80;92.80;;;;;;5054879;28;20028;-82
2021/08/22 05:52:51;;;;;;;34.78;22.77;;;18.80;92.80;;;;;;5072431;28;20028;-81
2021/08/22 05:55:17;;;;;;;32.72;21.48;;;18.70;92.70;;;;;;5037974;28;20028;-82
2021/08/22 05:57:43;;;;;;;30.95;20.85;;;18.80;92.80;;;;;;5055289;28;20021;-82
2021/08/22 06:00:09;;;;;;;28.05;20.55;;;18.80;92.80;;;;;;5058431;28;20025;-82
2021/08/22 06:02:36;;;;;;;38.63;23.80;;;18.80;92.80;;;;;;5058242;28;20038;-81
2021/08/22 06:05:03;;;;;;;26.50;18.45;;;18.90;92.80;;;;;;5053208;28;20028;-81
2021/08/22 06:07:28;;;;;;;32.35;20.98;;;18.90;92.80;;;;;;5057977;28;20035;-82
2021/08/22 06:09:54;;;;;;;40.85;23.27;;;19.00;92.80;;;;;;5041168;28;20033;-81
2021/08/22 06:12:20;;;;;;;33.42;20.38;;;19.00;92.70;;;;;;5057580;28;20086;-82
2021/08/22 06:14:46;;;;;;;29.88;19.75;;;19.00;92.60;;;;;;5075674;28;20062;-82
2021/08/22 06:17:12;;;;;;;23.77;18.10;;;19.00;92.70;;;;;;5056591;28;20059;-82
2021/08/22 06:19:38;;;;;;;29.02;19.10;;;19.10;92.60;;;;;;5039761;28;20056;-82
2021/08/22 06:22:04;;;;;;;37.33;21.33;;;19.10;92.60;;;;;;5074299;28;20041;-82
2021/08/22 06:24:31;;;;;;;31.38;20.27;;;19.10;92.60;;;;;;5056687;28;20055;-81
2021/08/22 06:26:57;;;;;;;28.38;19.90;;;19.10;92.60;;;;;;5073834;28;20021;-81
2021/08/22 06:29:22;;;;;;;26.65;19.58;;;19.20;92.60;;;;;;5056438;28;20481;-82
2021/08/22 06:31:48;;;;;;;29.80;19.08;;;19.20;92.60;;;;;;5039119;28;20032;-82
2021/08/22 06:34:14;;;;;;;31.02;18.92;;;19.20;92.60;;;;;;5055727;28;20044;-81
2021/08/22 06:36:40;;;;;;;31.58;19.38;;;19.30;92.50;;;;;;5074216;28;20028;-81
2021/08/22 06:39:07;;;;;;;27.65;19.83;;;19.30;92.50;;;;;;5040495;28;20036;-81
2021/08/22 06:41:33;;;;;;;39.80;20.73;;;19.40;92.50;;;;;;5057359;28;20025;-81
2021/08/22 06:43:59;;;;;;;29.80;18.60;;;19.30;92.40;;;;;;5075283;28;20029;-81
2021/08/22 06:46:25;;;;;;;26.17;18.05;;;19.40;92.50;;;;;;5075352;28;20109;-81
2021/08/22 06:48:50;;;;;;;27.92;18.88;;;19.40;92.50;;;;;;5074961;28;20028;-81
2021/08/22 06:51:16;;;;;;;29.70;20.75;;;19.50;92.50;;;;;;5057241;28;20134;-81
2021/08/22 06:53:42;;;;;;;34.58;20.42;;;19.60;92.40;;;;;;5074943;28;20020;-81
2021/08/22 06:56:07;;;;;;;31.85;20.17;;;19.70;92.30;;;;;;5057261;28;20021;-81
2021/08/22 06:58:33;;;;;;;30.50;22.33;;;19.70;92.10;;;;;;5074762;28;20470;-82
2021/08/22 07:00:59;;;;;;;29.88;20.35;;;19.70;92.20;;;;;;5074866;28;20036;-82
2021/08/22 07:03:24;;;;;;;28.63;20.92;;;19.70;92.30;;;;;;5074858;28;20107;-81
2021/08/22 07:05:50;;;;;;;31.58;20.73;;;19.80;92.30;;;;;;5040395;28;20080;-81
2021/08/22 07:08:15;;;;;;;28.70;20.15;;;19.80;92.30;;;;;;5056601;28;20024;-81
2021/08/22 07:10:41;;;;;;;30.42;19.85;;;19.80;92.30;;;;;;5056680;28;20036;-81
2021/08/22 07:13:07;;;;;;;28.00;19.65;;;19.80;92.20;;;;;;5056663;28;20116;-81
2021/08/22 07:15:34;;;;;;;23.38;19.38;;;19.80;92.10;;;;;;5056741;28;20024;-81
2021/08/22 07:18:00;;;;;;;25.25;18.55;;;19.80;92.00;;;;;;5056383;28;20054;-81
2021/08/22 07:20:25;;;;;;;24.27;18.23;;;19.90;92.00;;;;;;5056626;28;20382;-81
2021/08/22 07:22:51;;;;;;;24.15;18.10;;;19.90;91.90;;;;;;5074133;28;20033;-80
2021/08/22 07:25:18;;;;;;;23.00;17.25;;;19.80;91.80;;;;;;5056529;28;20036;-81
2021/08/22 07:27:43;;;;;;;28.88;18.58;;;19.90;91.90;;;;;;5039532;28;20477;-81
2021/08/22 07:30:10;;;;;;;25.92;17.30;;;19.90;91.90;;;;;;5074181;28;20056;-81
2021/08/22 07:32:35;;;;;;;21.27;17.08;;;19.90;91.80;;;;;;5074507;28;20043;-81
2021/08/22 07:35:01;;;;;;;23.20;16.10;;;19.90;91.80;;;;;;5056237;28;20507;-81
2021/08/22 07:37:27;;;;;;;25.38;16.63;;;19.90;91.70;;;;;;5039123;28;20536;-81
2021/08/22 07:39:52;;;;;;;24.08;14.68;;;19.90;91.70;;;;;;5074056;28;20052;-81
2021/08/22 07:42:18;;;;;;;22.75;15.13;;;20.00;91.90;;;;;;5056190;28;20032;-81
2021/08/22 07:44:43;;;;;;;20.08;16.17;;;20.10;91.90;;;;;;5074139;28;20036;-81
2021/08/22 07:47:09;;;;;;;21.40;16.30;;;20.20;91.80;;;;;;5056054;28;20024;-81
2021/08/22 07:49:35;;;;;;;25.67;15.30;;;20.30;91.80;;;;;;5073884;28;20028;-81
2021/08/22 07:52:00;;;;;;;19.67;13.65;;;20.30;91.70;;;;;;5039376;28;20029;-81
2021/08/22 07:54:26;;;;;;;20.52;14.40;;;20.30;91.60;;;;;;5035561;28;20033;-81
2021/08/22 07:56:52;;;;;;;21.15;14.55;;;20.40;91.60;;;;;;5057010;28;20028;-81
2021/08/22 07:59:17;;;;;;;20.15;14.80;;;20.40;91.40;;;;;;5055994;28;20056;-81
2021/08/22 08:01:43;;;;;;;17.85;13.32;;;20.40;91.30;;;;;;5039393;28;20043;-82
2021/08/22 08:04:08;;;;;;;16.27;12.15;;;20.40;91.20;;;;;;5055642;28;20063;-81
2021/08/22 08:06:34;;;;;;;20.42;12.73;;;20.30;91.40;;;;;;5072457;28;20038;-82
2021/08/22 08:09:00;;;;;;;21.95;12.93;;;20.30;91.40;;;;;;5072097;28;20070;-82
2021/08/22 08:11:26;;;;;;;18.58;12.05;;;20.40;91.30;;;;;;5054714;28;20020;-81
2021/08/22 08:13:51;;;;;;;12.57;9.35;;;20.60;91.10;;;;;;5037882;28;20393;-81
2021/08/22 08:16:17;;;;;;;17.73;9.07;;;20.80;90.80;;;;;;5054088;28;20436;-81
2021/08/22 08:18:43;;;;;;;16.77;9.23;;;21.10;90.40;;;;;;5073260;28;20509;-81
2021/08/22 08:21:08;;;;;;;12.50;9.23;;;21.30;90.30;;;;;;5072137;28;20029;-80
2021/08/22 08:23:34;;;;;;;12.90;8.55;;;21.40;88.80;;;;;;5073067;28;20031;-81
2021/08/22 08:25:59;;;;;;;11.80;8.43;;;21.60;88.50;;;;;;5055280;28;20107;-81
2021/08/22 08:28:25;;;;;;;11.32;7.63;;;21.70;87.40;;;;;;5073467;28;20477;-80
2021/08/22 08:30:51;;;;;;;11.20;7.85;;;21.80;86.90;;;;;;5055008;28;20036;-80
2021/08/22 08:33:16;;;;;;;9.60;7.45;;;21.80;86.80;;;;;;5055272;28;20059;-81
2021/08/22 08:35:42;;;;;;;12.70;7.57;;;21.60;86.20;;;;;;5055553;28;20055;-80
2021/08/22 08:38:08;;;;;;;11.10;6.57;;;21.50;86.30;;;;;;5072792;28;20056;-81
2021/08/22 08:40:34;;;;;;;11.70;7.00;;;21.40;87.10;;;;;;5073180;28;20470;-81
2021/08/22 08:43:01;;;;;;;8.63;5.70;;;21.40;87.20;;;;;;5073177;28;20039;-81
2021/08/22 08:46:00;;;;;;;10.20;6.07;;;21.40;86.60;;;;;;5055249;28;20025;-81
2021/08/22 08:48:45;;;;;;;8.73;5.85;;;21.20;86.20;;;;;;5072736;28;20029;-81
2021/08/22 08:51:15;;;;;;;8.40;5.43;;;21.20;86.90;;;;;;5073057;28;20047;-81
2021/08/22 08:53:53;;;;;;;6.93;4.68;;;21.10;87.40;;;;;;5072830;28;20370;-81
2021/08/22 08:56:30;;;;;;;10.40;4.90;;;21.10;86.90;;;;;;5055148;28;20025;-81
2021/08/22 08:58:58;;;;;;;10.93;5.00;;;21.00;86.60;;;;;;5073215;28;20042;-81
2021/08/22 09:01:24;;;;;;;5.40;4.25;;;21.00;87.00;;;;;;5072898;28;20114;-81
2021/08/22 09:04:26;;;;;;;6.00;4.45;;;21.10;86.00;;;;;;5072940;28;20492;-81
2021/08/22 09:07:28;;;;;;;10.07;4.20;;;21.20;85.30;;;;;;4991166;28;20435;-81
2021/08/22 09:10:25;;;;;;;7.07;4.10;;;21.20;84.70;;;;;;5055038;28;20033;-81
2021/08/22 09:13:13;;;;;;;8.20;4.72;;;21.10;85.40;;;;;;5054780;28;20028;-81
2021/08/22 09:15:45;;;;;;;;;;;21.10;84.80;;;;;;5055331;28;20389;-81
2021/08/22 09:18:35;;;;;;;5.43;3.95;;;21.20;85.00;;;;;;5054907;28;19905;-81
2021/08/22 09:21:44;;;;;;;7.50;4.15;;;21.10;84.20;;;;;;5054835;28;20094;-81
2021/08/22 09:24:31;;;;;;;7.78;4.05;;;20.90;84.70;;;;;;4974924;28;20033;-81
2021/08/22 09:27:33;;;;;;;7.40;4.15;;;20.80;86.60;;;;;;5067420;28;20058;-81
2021/08/22 09:30:36;;;;;;;7.57;3.60;;;20.80;86.50;;;;;;5072322;28;20470;-81
2021/08/22 09:33:38;;;;;;;6.03;4.13;;;21.20;85.50;;;;;;5073091;28;20037;-82
2021/08/22 09:36:55;;;;;;;7.13;3.92;;;21.40;84.70;;;;;;5056631;28;20143;-81
2021/08/22 09:39:58;;;;;;;11.82;3.63;;;21.30;84.50;;;;;;4994688;28;20107;-83
2021/08/22 09:43:28;;;;;;;10.20;4.07;;;21.20;85.10;;;;;;5027871;28;20033;-83
2021/08/22 09:46:30;;;;;;;8.35;3.67;;;21.10;85.00;;;;;;4968826;28;20050;-82
2021/08/22 09:49:18;;;;;;;7.82;4.00;;;21.00;85.40;;;;;;4975114;28;20027;-83
2021/08/22 09:52:22;;;;;;;12.82;3.65;;;20.90;84.40;;;;;;5027956;28;20073;-82
2021/08/22 09:55:15;;;;;;;5.40;3.10;;;20.80;84.90;;;;;;5018574;28;20030;-82
2021/08/22 09:58:24;;;;;;;7.63;3.95;;;20.70;84.90;;;;;;5053569;28;20428;-81
2021/08/22 10:01:14;;;;;;;5.55;3.20;;;20.90;85.20;;;;;;5055806;28;20084;-82
2021/08/22 10:03:52;;;;;;;7.07;3.10;;;21.20;84.80;;;;;;5018183;28;20052;-81
2021/08/22 10:06:24;;;;;;;6.50;3.08;;;21.80;82.90;;;;;;5023612;28;20028;-82
2021/08/22 10:09:10;;;;;;;5.65;3.08;;;22.20;81.60;;;;;;5055919;28;20025;-82
2021/08/22 10:12:00;;;;;;;6.10;3.33;;;22.60;80.20;;;;;;5055899;28;20104;-83
2021/08/22 10:14:27;;;;;;;6.90;3.40;;;22.90;79.90;;;;;;5035819;28;20033;-81
2021/08/22 10:16:53;;;;;;;6.47;2.85;;;23.00;79.60;;;;;;5035779;28;20545;-78
2021/08/22 10:19:28;;;;;;;7.32;3.55;;;23.20;78.70;;;;;;5070807;28;20505;-79
2021/08/22 10:22:16;;;;;;;9.45;3.80;;;23.20;77.80;;;;;;5075716;28;20100;-80
2021/08/22 10:24:44;;;;;;;8.07;3.13;;;23.10;76.60;;;;;;5075838;28;20036;-81
2021/08/22 10:27:13;;;;;;;9.95;3.80;;;23.20;77.90;;;;;;5071662;28;20272;-80
2021/08/22 10:29:48;;;;;;;9.07;4.03;;;23.20;77.40;;;;;;5037585;28;20056;-80
2021/08/22 10:32:14;;;;;;;12.07;3.90;;;23.20;76.70;;;;;;5055828;28;20435;-82
2021/08/22 10:34:44;;;;;;;8.68;3.75;;;23.30;76.60;;;;;;5082480;28;20380;-80
2021/08/22 10:37:27;;;;;;;9.23;3.85;;;23.60;75.90;;;;;;5055391;28;20367;-81
2021/08/22 10:39:55;;;;;;;8.95;3.30;;;23.90;74.50;;;;;;5055301;28;20100;-82
2021/08/22 10:42:22;;;;;;;12.57;3.10;;;24.10;73.10;;;;;;5054976;28;20529;-82
2021/08/22 10:44:48;;;;;;;8.95;3.25;;;24.30;72.50;;;;;;5053318;28;20033;-83
2021/08/22 10:47:33;;;;;;;6.65;3.08;;;24.40;73.00;;;;;;5054971;28;20450;-82
2021/08/22 10:50:00;;;;;;;8.00;3.50;;;24.40;72.00;;;;;;5054914;28;20391;-82
2021/08/22 10:52:32;;;;;;;7.80;3.28;;;24.40;71.50;;;;;;5055179;28;20036;-82
2021/08/22 10:55:16;;;;;;;9.73;3.30;;;24.40;71.50;;;;;;5053910;28;20468;-82
2021/08/22 10:57:44;;;;;;;9.85;3.33;;;24.40;69.30;;;;;;5053813;28;20047;-82
2021/08/22 11:00:28;;;;;;;6.78;3.33;;;24.30;70.30;;;;;;5055159;28;20017;-81
2021/08/22 11:03:02;;;;;;;8.43;3.28;;;24.10;69.60;;;;;;5053697;28;20044;-82
2021/08/22 11:05:36;;;;;;;8.23;3.15;;;23.80;69.80;;;;;;5053634;28;20051;-82
2021/08/22 11:08:22;;;;;;;9.25;3.15;;;23.70;70.40;;;;;;5055077;28;20116;-82
2021/08/22 11:11:04;;;;;;;6.85;2.92;;;23.60;71.00;;;;;;5046750;28;20029;-82
2021/08/22 11:13:32;;;;;;;8.70;3.10;;;23.60;71.60;;;;;;5053498;28;20514;-82
2021/08/22 11:16:02;;;;;;;7.43;3.10;;;23.70;72.90;;;;;;5054720;28;20029;-82
2021/08/22 11:18:28;;;;;;;6.43;2.90;;;23.70;72.10;;;;;;5053173;28;20124;-83
2021/08/22 11:20:53;;;;;;;5.95;3.00;;;23.60;71.90;;;;;;5054630;28;20059;-83
2021/08/22 11:23:19;;;;;;;7.70;3.10;;;23.60;71.70;;;;;;5054459;28;20040;-82
2021/08/22 11:25:51;;;;;;;7.22;3.08;;;23.60;71.80;;;;;;5053675;28;20574;-82
2021/08/22 11:28:18;;;;;;;6.65;3.10;;;23.60;72.50;;;;;;5052288;28;20698;-83
2021/08/22 11:30:45;;;;;;;6.18;3.08;;;23.60;72.40;;;;;;5052665;28;20506;-83
2021/08/22 11:33:12;;;;;;;6.72;3.03;;;23.70;71.90;;;;;;5054984;28;20049;-84
2021/08/22 11:35:40;;;;;;;4.40;2.80;;;23.70;70.80;;;;;;5072394;28;20142;-85
2021/08/22 11:38:07;;;;;;;6.30;2.80;;;23.70;71.00;;;;;;5060032;28;20422;-84
2021/08/22 11:40:34;;;;;;;5.53;2.40;;;23.60;70.60;;;;;;5054080;28;20044;-83
2021/08/22 11:43:04;;;;;;;6.93;2.85;;;23.60;70.70;;;;;;5053951;28;20032;-82
2021/08/22 11:45:42;;;;;;;6.88;3.03;;;23.50;71.60;;;;;;5054074;28;20025;-84
2021/08/22 11:48:18;;;;;;;5.18;2.72;;;23.40;71.40;;;;;;5052436;28;20025;-83
2021/08/22 11:50:45;;;;;;;6.82;2.80;;;23.40;71.70;;;;;;5059509;28;20040;-83
2021/08/22 11:53:11;;;;;;;7.57;2.83;;;23.40;72.40;;;;;;5073700;28;20033;-82
2021/08/22 11:55:39;;;;;;;8.38;2.67;;;23.40;72.50;;;;;;5051616;28;20478;-82
2021/08/22 11:58:20;;;;;;;5.70;2.75;;;23.30;72.40;;;;;;5019513;28;20496;-82
2021/08/22 12:00:55;;;;;;;4.28;2.47;;;23.20;72.60;;;;;;5035891;28;20115;-82
2021/08/22 12:03:25;;;;;;;4.28;2.08;;;23.20;73.30;;;;;;5053665;28;20053;-83
2021/08/22 12:05:59;;;;;;;4.10;1.80;;;23.10;73.40;;;;;;5052482;28;20040;-82
2021/08/22 12:08:29;;;;;;;5.65;2.10;;;23.10;73.30;;;;;;5051999;28;20030;-82
2021/08/22 12:11:08;;;;;;;5.03;2.20;;;23.10;73.80;;;;;;5045962;28;20101;-83
2021/08/22 12:13:36;;;;;;;5.65;2.08;;;23.00;74.30;;;;;;5073164;28;20032;-84
2021/08/22 12:16:20;;;;;;;4.10;2.17;;;23.00;74.20;;;;;;5036540;28;20024;-84
2021/08/22 12:18:46;;;;;;;5.93;2.20;;;23.00;74.80;;;;;;5037855;28;20494;-84
2021/08/22 12:21:14;;;;;;;5.25;2.50;;;23.00;75.20;;;;;;5032079;28;20035;-83
2021/08/22 12:23:40;;;;;;;3.35;1.83;;;22.90;74.80;;;;;;5053213;28;20107;-84
2021/08/22 12:26:21;;;;;;;5.10;1.90;;;23.00;75.00;;;;;;5050716;28;20039;-84
2021/08/22 12:28:50;;;;;;;4.68;2.03;;;23.00;74.20;;;;;;5052857;28;20387;-83
2021/08/22 12:31:16;;;;;;;6.43;2.10;;;23.00;74.50;;;;;;5052691;28;20033;-82
2021/08/22 12:33:44;;;;;;;3.22;2.05;;;23.10;75.20;;;;;;5026528;28;20057;-82
2021/08/22 12:36:14;;;;;;;3.28;2.15;;;23.10;74.90;;;;;;5053446;28;20029;-82
2021/08/22 12:38:43;;;;;;;3.50;2.10;;;23.20;75.80;;;;;;5053259;28;20032;-82
2021/08/22 12:41:36;;;;;;;4.13;1.70;;;23.20;75.20;;;;;;5052106;28;20028;-82
2021/08/22 12:44:04;;;;;;;1.92;1.50;;;23.30;74.40;;;;;;5053310;28;20029;-82
2021/08/22 12:46:31;;;;;;;4.32;1.60;;;23.40;74.00;;;;;;5053362;28;20025;-82
2021/08/22 12:48:57;;;;;;;6.95;1.70;;;23.60;74.20;;;;;;5053080;28;20116;-82
2021/08/22 12:51:24;;;;;;;3.65;1.60;;;23.70;73.50;;;;;;5053113;28;20029;-82